TimeCDT,TemperatureF,Dew PointF,Humidity,Sea Level PressureIn,VisibilityMPH,Wind Direction,Wind SpeedMPH,Gust SpeedMPH,PrecipitationIn,Events,Conditions,WindDirDegrees,DateUTC
12:53 AM,68.0,51.1,55,29.98,10.0,South,8.1,-,N/A,,Clear,180,2013-05-15 05:53:00
1:53 AM,70.0,50.0,49,29.98,10.0,SSW,6.9,-,N/A,,Clear,210,2013-05-15 06:53:00
2:53 AM,64.9,48.9,56,29.98,10.0,South,4.6,-,N/A,,Clear,180,2013-05-15 07:53:00
3:53 AM,68.0,48.0,49,29.97,10.0,South,6.9,-,N/A,,Clear,190,2013-05-15 08:53:00
4:53 AM,68.0,48.9,50,29.97,10.0,SW,3.5,-,N/A,,Clear,220,2013-05-15 09:53:00
5:53 AM,66.9,51.1,57,29.98,10.0,South,5.8,-,N/A,,Clear,190,2013-05-15 10:53:00
6:53 AM,66.0,52.0,60,29.99,10.0,South,5.8,-,N/A,,Clear,190,2013-05-15 11:53:00
7:53 AM,70.0,54.0,57,29.99,10.0,SE,8.1,-,N/A,,Clear,140,2013-05-15 12:53:00
8:53 AM,73.9,57.9,57,29.99,10.0,Variable,3.5,-,N/A,,Clear,0,2013-05-15 13:53:00
9:53 AM,75.9,61.0,60,29.99,10.0,SE,8.1,-,N/A,,Clear,140,2013-05-15 14:53:00
10:53 AM,79.0,62.1,56,29.98,10.0,South,10.4,-,N/A,,Clear,170,2013-05-15 15:53:00
11:53 AM,80.1,63.0,56,29.98,10.0,South,6.9,-,N/A,,Clear,170,2013-05-15 16:53:00
12:53 PM,79.0,63.0,58,29.96,10.0,South,10.4,-,N/A,,Clear,170,2013-05-15 17:53:00
1:53 PM,79.0,64.0,60,29.95,10.0,South,9.2,-,N/A,,Partly Cloudy,180,2013-05-15 18:53:00
2:53 PM,77.0,63.0,62,29.94,10.0,SSW,8.1,-,N/A,,Partly Cloudy,200,2013-05-15 19:53:00
3:53 PM,78.1,64.0,62,29.93,10.0,SSW,9.2,18.4,N/A,,Partly Cloudy,210,2013-05-15 20:53:00
4:53 PM,75.0,63.0,66,29.92,10.0,SSW,6.9,-,N/A,,Scattered Clouds,200,2013-05-15 21:53:00
5:21 PM,71.6,64.4,78,29.96,7.0,SSW,6.9,-,0.00,Rain-Thunderstorm,Light Rain,200,2013-05-15 22:21:00
5:36 PM,69.8,64.4,83,29.98,1.8,SSW,11.5,17.3,0.09,Rain-Thunderstorm,Heavy Rain,210,2013-05-15 22:36:00
5:51 PM,66.2,62.6,88,29.97,2.0,SSW,3.5,16.1,0.30,Rain-Thunderstorm,Rain,200,2013-05-15 22:51:00
5:53 PM,66.9,63.0,87,29.95,3.0,South,5.8,-,0.30,Rain-Thunderstorm,Rain,180,2013-05-15 22:53:00
6:03 PM,66.2,64.4,94,29.97,7.0,South,5.8,-,0.01,Rain-Thunderstorm,Light Rain,190,2013-05-15 23:03:00
6:23 PM,66.2,64.4,94,29.97,7.0,South,5.8,-,0.03,Rain,Light Rain,180,2013-05-15 23:23:00
6:53 PM,66.0,64.0,93,29.94,10.0,Calm,Calm,-,0.04,Rain,Light Rain,0,2013-05-15 23:53:00
7:53 PM,66.0,64.0,93,29.92,8.0,SSE,4.6,-,0.00,,Mostly Cloudy,150,2013-05-16 00:53:00
8:53 PM,66.0,64.9,96,29.93,4.0,Calm,Calm,-,N/A,,Overcast,0,2013-05-16 01:53:00
9:00 PM,66.2,64.4,94,29.97,2.5,Calm,Calm,-,N/A,,Overcast,0,2013-05-16 02:00:00
9:15 PM,66.2,64.4,94,29.96,5.0,SE,4.6,-,N/A,,Overcast,140,2013-05-16 02:15:00
9:53 PM,66.0,64.9,96,29.93,7.0,SE,5.8,-,N/A,,Overcast,130,2013-05-16 02:53:00
10:53 PM,64.9,64.0,97,29.90,7.0,SE,5.8,-,N/A,,Overcast,130,2013-05-16 03:53:00
11:53 PM,64.0,63.0,96,29.89,7.0,SSE,5.8,-,N/A,,Overcast,160,2013-05-16 04:53:00